createdAt,value
2018-08-30T00:02:11.777Z,92.60
2018-08-30T00:04:53.058Z,92.60
2018-08-30T00:07:33.642Z,92.70
2018-08-30T00:10:14.309Z,92.90
2018-08-30T00:12:55.793Z,92.90
2018-08-30T00:15:37.069Z,93.00
2018-08-30T00:18:17.928Z,93.20
2018-08-30T00:20:58.603Z,93.30
2018-08-30T00:23:39.989Z,93.60
2018-08-30T00:26:20.741Z,93.70
2018-08-30T00:29:02.290Z,93.90
2018-08-30T00:31:43.804Z,94.10
2018-08-30T00:34:25.139Z,94.10
2018-08-30T00:37:05.818Z,94.40
2018-08-30T00:39:46.513Z,94.40
2018-08-30T00:42:27.182Z,94.70
2018-08-30T00:45:07.740Z,94.90
2018-08-30T00:47:49.843Z,94.90
2018-08-30T00:50:30.967Z,95.00
2018-08-30T00:53:11.682Z,95.40
2018-08-30T00:55:53.023Z,95.40
2018-08-30T00:58:33.679Z,95.50
2018-08-30T01:01:14.277Z,95.50
2018-08-30T01:03:54.877Z,95.40
2018-08-30T01:06:36.383Z,95.40
2018-08-30T01:09:17.042Z,95.50
2018-08-30T01:11:58.548Z,95.50
2018-08-30T01:14:39.642Z,95.50
2018-08-30T01:17:20.741Z,95.50
2018-08-30T01:20:02.332Z,95.50
2018-08-30T01:22:42.957Z,95.50
2018-08-30T01:25:23.541Z,95.50
2018-08-30T01:28:04.153Z,95.50
2018-08-30T01:30:44.702Z,95.40
2018-08-30T01:33:25.321Z,95.50
2018-08-30T01:36:05.883Z,95.60
2018-08-30T01:38:46.706Z,95.60
2018-08-30T01:41:29.280Z,95.50
2018-08-30T01:44:11.468Z,95.50
2018-08-30T01:46:52.366Z,95.30
2018-08-30T01:49:33.734Z,95.20
2018-08-30T01:52:15.007Z,95.20
2018-08-30T01:54:55.957Z,95.20
2018-08-30T01:57:37.418Z,95.10
2018-08-30T02:00:18.864Z,95.20
2018-08-30T02:02:59.534Z,95.20
2018-08-30T02:05:40.125Z,95.20
2018-08-30T02:08:20.753Z,95.10
2018-08-30T02:11:02.206Z,95.20
2018-08-30T02:13:42.963Z,95.20
2018-08-30T02:16:24.365Z,95.10
2018-08-30T02:19:05.483Z,94.90
2018-08-30T02:21:46.689Z,94.80
2018-08-30T02:24:27.554Z,94.80
2018-08-30T02:27:09.095Z,94.80
2018-08-30T02:29:50.422Z,94.80
2018-08-30T02:32:31.873Z,95.00
2018-08-30T02:35:12.673Z,95.00
2018-08-30T02:37:54.129Z,95.00
2018-08-30T02:40:34.749Z,95.20
2018-08-30T02:43:15.321Z,95.30
2018-08-30T02:45:55.898Z,95.30
2018-08-30T02:48:36.473Z,95.30
2018-08-30T02:51:17.112Z,95.30
2018-08-30T02:53:57.767Z,95.30
2018-08-30T02:56:39.400Z,95.30
2018-08-30T02:59:20.962Z,95.10
2018-08-30T03:02:02.427Z,95.10
2018-08-30T03:04:43.046Z,95.20
2018-08-30T03:07:24.645Z,95.40
2018-08-30T03:10:06.023Z,95.50
2018-08-30T03:12:46.634Z,95.50
2018-08-30T03:15:27.233Z,95.40
2018-08-30T03:18:08.162Z,95.40
2018-08-30T03:20:49.693Z,95.30
2018-08-30T03:23:30.442Z,95.30
2018-08-30T03:26:11.933Z,95.20
2018-08-30T03:28:52.712Z,95.20
2018-08-30T03:31:34.192Z,95.30
2018-08-30T03:34:14.862Z,95.30
2018-08-30T03:36:56.961Z,95.40
2018-08-30T03:39:38.168Z,95.40
2018-08-30T03:42:19.929Z,95.30
2018-08-30T03:45:01.291Z,95.20
2018-08-30T03:47:41.839Z,95.30
2018-08-30T03:50:22.541Z,95.30
2018-08-30T03:53:03.136Z,95.30
2018-08-30T03:55:43.741Z,95.40
2018-08-30T03:58:24.477Z,95.40
2018-08-30T04:01:06.011Z,95.20
2018-08-30T04:03:47.484Z,95.40
2018-08-30T04:06:28.977Z,95.40
2018-08-30T04:09:10.334Z,95.60
2018-08-30T04:11:51.377Z,95.60
2018-08-30T04:14:32.781Z,95.70
2018-08-30T04:17:14.273Z,95.70
2018-08-30T04:19:55.845Z,95.70
2018-08-30T04:22:37.350Z,95.60
2018-08-30T04:25:18.022Z,95.60
2018-08-30T04:27:59.554Z,95.70
2018-08-30T04:30:41.021Z,95.60
2018-08-30T04:33:22.463Z,95.60
2018-08-30T04:36:03.147Z,95.60
2018-08-30T04:38:44.786Z,95.60
2018-08-30T04:41:27.819Z,95.60
2018-08-30T04:44:09.010Z,95.50
2018-08-30T04:46:49.732Z,95.40
2018-08-30T04:49:31.221Z,95.30
2018-08-30T04:52:11.746Z,95.10
2018-08-30T04:54:53.211Z,94.90
2018-08-30T04:57:33.916Z,94.80
2018-08-30T05:00:14.438Z,94.80
2018-08-30T05:02:55.189Z,94.70
2018-08-30T05:05:36.568Z,94.90
2018-08-30T05:08:17.177Z,95.10
2018-08-30T05:10:57.891Z,95.20
2018-08-30T05:13:39.389Z,95.20
2018-08-30T05:16:20.078Z,95.40
2018-08-30T05:19:00.692Z,95.50
2018-08-30T05:21:41.318Z,95.60
2018-08-30T05:24:22.830Z,95.50
2018-08-30T05:27:03.523Z,95.50
2018-08-30T05:29:44.210Z,95.30
2018-08-30T05:32:25.654Z,95.20
2018-08-30T05:35:06.327Z,95.10
2018-08-30T05:37:47.882Z,94.90
2018-08-30T05:40:29.190Z,94.80
2018-08-30T05:43:10.233Z,94.70
2018-08-30T05:45:51.660Z,94.60
2018-08-30T05:48:33.218Z,94.30
2018-08-30T05:51:14.567Z,94.30
2018-08-30T05:53:55.330Z,94.20
2018-08-30T05:56:36.813Z,94.20
2018-08-30T05:59:18.314Z,94.10
2018-08-30T06:01:59.055Z,93.90
2018-08-30T06:04:39.840Z,93.90
2018-08-30T06:07:21.326Z,93.70
2018-08-30T06:10:01.808Z,93.70
2018-08-30T06:12:42.356Z,93.70
2018-08-30T06:15:22.965Z,93.60
2018-08-30T06:18:03.689Z,93.60
2018-08-30T06:20:45.090Z,93.60
2018-08-30T06:23:25.686Z,93.50
2018-08-30T06:26:06.501Z,93.30
2018-08-30T06:28:47.850Z,93.10
2018-08-30T06:31:28.621Z,92.80
2018-08-30T06:34:10.003Z,92.50
2018-08-30T06:36:52.087Z,92.80
2018-08-30T06:39:33.090Z,92.30
2018-08-30T06:42:13.693Z,92.30
2018-08-30T06:44:55.079Z,92.20
2018-08-30T06:47:36.091Z,92.10
2018-08-30T06:50:16.678Z,92.00
2018-08-30T06:52:57.412Z,92.20
2018-08-30T06:55:38.917Z,92.00
2018-08-30T06:58:20.312Z,91.90
2018-08-30T07:01:00.920Z,91.60
2018-08-30T07:03:41.478Z,90.80
2018-08-30T07:06:23.028Z,90.00
2018-08-30T07:09:03.875Z,89.90
2018-08-30T07:11:45.252Z,89.10
2018-08-30T07:14:26.015Z,87.60
2018-08-30T07:17:06.615Z,87.60
2018-08-30T07:19:47.258Z,87.00
2018-08-30T07:22:28.846Z,87.70
2018-08-30T07:25:10.180Z,87.90
2018-08-30T07:27:50.809Z,86.90
2018-08-30T07:30:31.463Z,86.00
2018-08-30T07:33:12.060Z,85.70
2018-08-30T07:35:52.699Z,85.90
2018-08-30T07:38:33.285Z,85.10
2018-08-30T07:41:14.041Z,84.30
2018-08-30T07:43:55.521Z,84.70
2018-08-30T07:46:37.055Z,84.50
2018-08-30T07:49:17.637Z,84.50
2018-08-30T07:51:59.170Z,85.00
2018-08-30T07:54:40.767Z,85.00
2018-08-30T07:57:21.351Z,84.00
2018-08-30T08:00:02.296Z,84.30
2018-08-30T08:02:43.523Z,84.90
2018-08-30T08:05:25.018Z,84.70
2018-08-30T08:08:05.701Z,84.70
2018-08-30T08:10:47.357Z,84.80
2018-08-30T08:13:28.828Z,84.10
2018-08-30T08:16:09.637Z,83.20
2018-08-30T08:18:51.127Z,81.40
2018-08-30T08:21:32.236Z,80.20
2018-08-30T08:24:13.396Z,79.50
2018-08-30T08:26:54.031Z,78.40
2018-08-30T08:29:35.555Z,75.50
2018-08-30T08:32:17.124Z,75.10
2018-08-30T08:34:58.649Z,73.90
2018-08-30T08:37:39.276Z,70.80
2018-08-30T08:40:19.872Z,71.60
2018-08-30T08:43:01.313Z,74.30
2018-08-30T08:45:42.837Z,74.20
2018-08-30T08:48:23.422Z,71.80
2018-08-30T08:51:04.120Z,73.40
2018-08-30T08:53:44.745Z,73.00
2018-08-30T08:56:25.341Z,73.10
2018-08-30T08:59:05.999Z,73.80
2018-08-30T09:01:46.986Z,74.10
2018-08-30T09:04:28.248Z,74.80
2018-08-30T09:07:08.909Z,74.60
2018-08-30T09:09:49.466Z,74.80
2018-08-30T09:12:37.618Z,75.70
2018-08-30T09:15:18.493Z,75.80
2018-08-30T09:17:59.104Z,75.20
2018-08-30T09:20:39.782Z,74.30
2018-08-30T09:23:21.232Z,75.20
2018-08-30T09:26:02.760Z,74.00
2018-08-30T09:28:43.412Z,74.90
2018-08-30T09:31:24.281Z,74.80
2018-08-30T09:34:05.602Z,73.10
2018-08-30T09:36:47.086Z,76.80
2018-08-30T09:39:28.549Z,74.70
2018-08-30T09:42:09.434Z,74.40
2018-08-30T09:44:50.108Z,75.70
2018-08-30T09:47:30.703Z,77.00
2018-08-30T09:50:12.151Z,75.50
2018-08-30T09:52:52.862Z,77.70
2018-08-30T09:55:33.574Z,77.90
2018-08-30T09:58:14.180Z,76.00
2018-08-30T10:01:00.818Z,77.00
2018-08-30T10:03:42.220Z,77.90
2018-08-30T10:06:22.784Z,76.70
2018-08-30T10:09:03.664Z,77.80
2018-08-30T10:11:45.133Z,77.30
2018-08-30T10:14:25.725Z,77.30
2018-08-30T10:17:06.401Z,78.10
2018-08-30T10:19:47.052Z,78.60
2018-08-30T10:22:27.789Z,78.80
2018-08-30T10:25:09.140Z,78.60
2018-08-30T10:27:50.249Z,77.90
2018-08-30T10:30:31.353Z,77.80
2018-08-30T10:33:11.898Z,77.70
2018-08-30T10:35:52.613Z,76.70
2018-08-30T10:38:34.067Z,76.80
2018-08-30T10:41:14.742Z,76.60
2018-08-30T10:43:55.364Z,76.00
2018-08-30T10:46:36.820Z,74.40
2018-08-30T10:49:17.524Z,76.10
2018-08-30T10:51:58.237Z,76.40
2018-08-30T10:54:40.526Z,76.20
2018-08-30T10:57:21.339Z,76.00
2018-08-30T11:00:02.763Z,76.20
2018-08-30T11:02:43.442Z,74.50
2018-08-30T11:05:24.143Z,73.80
2018-08-30T11:08:06.347Z,73.90
2018-08-30T11:10:47.194Z,74.00
2018-08-30T11:13:27.830Z,74.00
2018-08-30T11:16:08.371Z,74.10
2018-08-30T11:18:49.869Z,72.40
2018-08-30T11:21:31.410Z,73.70
2018-08-30T11:24:12.882Z,72.90
2018-08-30T11:26:54.545Z,73.50
2018-08-30T11:29:35.928Z,73.70
2018-08-30T11:32:17.579Z,73.20
2018-08-30T11:34:59.000Z,73.20
2018-08-30T11:37:40.180Z,73.40
2018-08-30T11:40:21.165Z,72.80
2018-08-30T11:43:02.740Z,72.30
2018-08-30T11:45:44.304Z,73.00
2018-08-30T11:48:25.849Z,72.70
2018-08-30T11:51:06.473Z,72.20
2018-08-30T11:53:47.301Z,72.50
2018-08-30T11:56:28.142Z,72.90
2018-08-30T11:59:09.623Z,72.30
2018-08-30T12:01:51.097Z,72.20
2018-08-30T12:04:31.622Z,71.70
2018-08-30T12:07:12.263Z,71.90
2018-08-30T12:09:52.970Z,71.90
2018-08-30T12:12:33.544Z,71.70
2018-08-30T12:15:14.132Z,71.70
2018-08-30T12:17:54.789Z,71.70
2018-08-30T12:20:35.493Z,71.60
2018-08-30T12:23:16.362Z,71.80
2018-08-30T12:25:57.899Z,72.00
2018-08-30T12:28:39.176Z,71.70
2018-08-30T12:31:21.142Z,71.50
2018-08-30T12:34:02.574Z,70.90
2018-08-30T12:36:43.421Z,71.00
2018-08-30T12:39:24.502Z,70.70
2018-08-30T12:42:05.566Z,70.70
2018-08-30T12:44:46.277Z,71.20
2018-08-30T12:47:27.585Z,71.40
2018-08-30T12:50:08.524Z,71.80
2018-08-30T12:52:49.059Z,71.40
2018-08-30T12:55:29.868Z,72.30
2018-08-30T12:58:11.491Z,72.10
2018-08-30T13:00:53.079Z,72.20
2018-08-30T13:03:34.484Z,72.70
2018-08-30T13:06:15.268Z,71.90
2018-08-30T13:08:56.336Z,72.40
2018-08-30T13:11:37.378Z,72.00
2018-08-30T13:14:19.037Z,71.80
2018-08-30T13:17:00.470Z,72.50
2018-08-30T13:19:41.256Z,72.10
2018-08-30T13:22:22.952Z,71.20
2018-08-30T13:25:04.934Z,71.50
2018-08-30T13:27:45.901Z,72.10
2018-08-30T13:30:27.592Z,71.80
2018-08-30T13:33:09.159Z,71.90
2018-08-30T13:35:50.742Z,72.00
2018-08-30T13:38:31.282Z,71.80
2018-08-30T13:41:12.025Z,71.60
2018-08-30T13:43:53.406Z,72.10
2018-08-30T13:46:35.075Z,72.70
2018-08-30T13:49:15.564Z,73.40
2018-08-30T13:51:56.324Z,72.10
2018-08-30T13:54:36.940Z,73.00
2018-08-30T13:57:18.752Z,72.50
2018-08-30T14:00:00.255Z,72.50
2018-08-30T14:02:40.611Z,72.10
2018-08-30T14:05:21.619Z,72.80
2018-08-30T14:08:02.985Z,73.40
2018-08-30T14:10:44.588Z,73.20
2018-08-30T14:13:25.171Z,73.30
2018-08-30T14:16:06.455Z,72.90
2018-08-30T14:18:47.971Z,73.20
2018-08-30T14:21:28.654Z,73.50
2018-08-30T14:24:09.342Z,73.80
2018-08-30T14:26:50.178Z,74.30
2018-08-30T14:29:32.118Z,74.20
2018-08-30T14:32:13.273Z,73.90
2018-08-30T14:34:54.810Z,73.40
2018-08-30T14:37:36.214Z,73.00
2018-08-30T14:40:18.444Z,73.70
2018-08-30T14:42:59.184Z,74.10
2018-08-30T14:45:40.125Z,74.60
2018-08-30T14:48:21.700Z,75.90
2018-08-30T14:51:03.189Z,75.70
2018-08-30T14:53:44.581Z,75.30
2018-08-30T14:56:25.969Z,75.30
2018-08-30T14:59:07.681Z,75.20
2018-08-30T15:01:48.159Z,75.40
2018-08-30T15:04:28.842Z,75.50
2018-08-30T15:07:10.361Z,75.10
2018-08-30T15:09:50.906Z,75.60
2018-08-30T15:12:31.618Z,76.20
2018-08-30T15:15:12.614Z,76.30
2018-08-30T15:17:53.841Z,76.50
2018-08-30T15:20:34.542Z,77.40
2018-08-30T15:23:15.870Z,77.60
2018-08-30T15:25:56.466Z,78.60
2018-08-30T15:28:37.098Z,78.30
2018-08-30T15:31:17.863Z,78.50
2018-08-30T15:33:58.654Z,78.50
2018-08-30T15:36:39.149Z,78.70
2018-08-30T15:39:19.887Z,78.70
2018-08-30T15:42:00.577Z,79.30
2018-08-30T15:44:41.185Z,79.20
2018-08-30T15:47:21.974Z,79.00
2018-08-30T15:50:03.284Z,78.90
2018-08-30T15:52:43.914Z,79.60
2018-08-30T15:55:24.537Z,79.70
2018-08-30T15:58:06.238Z,79.30
2018-08-30T16:00:46.829Z,79.40
2018-08-30T16:03:28.913Z,79.50
2018-08-30T16:06:10.492Z,79.60
2018-08-30T16:08:51.821Z,80.10
2018-08-30T16:11:32.449Z,80.20
2018-08-30T16:14:13.091Z,80.20
2018-08-30T16:16:53.680Z,80.10
2018-08-30T16:19:35.166Z,80.00
2018-08-30T16:22:16.685Z,80.50
2018-08-30T16:24:58.203Z,80.90
2018-08-30T16:27:38.701Z,80.60
2018-08-30T16:30:20.174Z,80.80
2018-08-30T16:33:00.834Z,81.10
2018-08-30T16:35:41.630Z,81.40
2018-08-30T16:38:22.224Z,81.50
2018-08-30T16:41:02.844Z,81.50
2018-08-30T16:43:43.357Z,81.60
2018-08-30T16:46:24.142Z,81.60
2018-08-30T16:49:04.893Z,81.30
2018-08-30T16:51:46.502Z,81.30
2018-08-30T16:54:28.025Z,81.20
2018-08-30T16:57:09.480Z,81.40
2018-08-30T16:59:50.938Z,81.60
2018-08-30T17:02:31.683Z,82.00
2018-08-30T17:05:12.252Z,82.10
2018-08-30T17:07:52.825Z,82.50
2018-08-30T17:10:33.402Z,83.30
2018-08-30T17:13:13.977Z,83.80
2018-08-30T17:15:54.677Z,84.00
2018-08-30T17:18:35.405Z,84.50
2018-08-30T17:21:16.843Z,84.80
2018-08-30T17:23:57.945Z,85.50
2018-08-30T17:26:39.102Z,86.00
2018-08-30T17:29:20.466Z,86.40
2018-08-30T17:32:01.427Z,86.70
2018-08-30T17:34:42.888Z,86.60
2018-08-30T17:37:23.638Z,86.80
2018-08-30T17:40:05.122Z,87.50
2018-08-30T17:42:46.767Z,88.60
2018-08-30T17:45:28.307Z,89.30
2018-08-30T17:48:08.882Z,89.60
2018-08-30T17:50:51.002Z,89.90
2018-08-30T17:53:32.132Z,90.10
2018-08-30T17:56:13.613Z,90.20
2018-08-30T17:58:54.271Z,90.30
2018-08-30T18:01:35.801Z,90.40
2018-08-30T18:04:17.372Z,90.50
2018-08-30T18:06:59.083Z,90.30
2018-08-30T18:09:40.492Z,90.10
2018-08-30T18:12:21.102Z,90.10
2018-08-30T18:15:01.684Z,90.20
2018-08-30T18:17:42.375Z,90.20
2018-08-30T18:20:25.845Z,90.30
2018-08-30T18:23:06.466Z,90.10
2018-08-30T18:25:47.098Z,90.00
2018-08-30T18:28:29.012Z,90.10
2018-08-30T18:31:10.310Z,90.10
2018-08-30T18:33:51.823Z,90.40
2018-08-30T18:36:33.394Z,90.50
2018-08-30T18:39:14.098Z,90.60
2018-08-30T18:41:54.728Z,90.80
2018-08-30T18:44:36.369Z,91.00
2018-08-30T18:47:17.853Z,91.20
2018-08-30T18:50:00.149Z,91.30
2018-08-30T18:52:41.467Z,91.30
2018-08-30T18:55:22.506Z,91.30
2018-08-30T18:58:03.346Z,91.60
2018-08-30T19:00:44.800Z,91.60
2018-08-30T19:03:26.331Z,91.70
2018-08-30T19:06:07.189Z,91.80
2018-08-30T19:08:48.666Z,92.30
2018-08-30T19:11:29.248Z,92.60
2018-08-30T19:14:10.911Z,92.60
2018-08-30T19:16:57.414Z,92.70
2018-08-30T19:19:38.848Z,92.90
2018-08-30T19:22:20.379Z,93.00
2018-08-30T19:25:05.980Z,93.20
2018-08-30T19:27:46.705Z,93.10
2018-08-30T19:30:29.597Z,93.10
2018-08-30T19:33:10.771Z,93.20
2018-08-30T19:35:56.503Z,93.30
2018-08-30T19:38:37.957Z,93.30
2018-08-30T19:41:21.265Z,93.40
2018-08-30T19:44:01.937Z,93.40
2018-08-30T19:46:42.530Z,93.50
2018-08-30T19:49:24.409Z,93.40
2018-08-30T19:52:05.508Z,93.40
2018-08-30T19:54:46.177Z,93.40
2018-08-30T19:57:26.717Z,93.40
2018-08-30T20:00:07.339Z,93.50
2018-08-30T20:02:47.946Z,93.50
2018-08-30T20:05:28.601Z,93.50
2018-08-30T20:08:10.869Z,93.70
2018-08-30T20:10:51.699Z,93.70
2018-08-30T20:13:33.170Z,93.80
2018-08-30T20:16:13.854Z,93.80
2018-08-30T20:18:55.354Z,93.90
2018-08-30T20:21:36.237Z,93.90
2018-08-30T20:24:17.606Z,94.00
2018-08-30T20:26:58.338Z,94.00
2018-08-30T20:29:39.799Z,94.00
2018-08-30T20:32:20.630Z,94.00
2018-08-30T20:35:01.385Z,94.10
2018-08-30T20:37:42.293Z,94.10
2018-08-30T20:40:23.521Z,94.10
2018-08-30T20:43:04.141Z,94.10
2018-08-30T20:45:45.551Z,94.10
2018-08-30T20:48:26.382Z,94.00
2018-08-30T20:51:07.789Z,94.00
2018-08-30T20:53:48.430Z,94.20
2018-08-30T20:56:29.464Z,94.20
2018-08-30T20:59:10.593Z,94.30
2018-08-30T21:01:51.307Z,94.30
2018-08-30T21:04:31.959Z,94.40
2018-08-30T21:07:13.410Z,94.40
2018-08-30T21:09:54.914Z,94.50
2018-08-30T21:12:36.446Z,94.60
2018-08-30T21:15:17.909Z,94.60
2018-08-30T21:17:59.878Z,94.60
2018-08-30T21:20:40.831Z,94.70
2018-08-30T21:23:21.461Z,94.60
2018-08-30T21:26:02.113Z,94.70
2018-08-30T21:28:42.721Z,94.80
2018-08-30T21:31:23.305Z,94.80
2018-08-30T21:34:03.882Z,94.90
2018-08-30T21:36:44.640Z,94.90
2018-08-30T21:39:25.250Z,94.90
2018-08-30T21:42:05.836Z,94.80
2018-08-30T21:44:46.493Z,94.90
2018-08-30T21:47:27.156Z,94.70
2018-08-30T21:50:07.778Z,94.80
2018-08-30T21:52:49.271Z,94.70
2018-08-30T21:55:29.802Z,94.70
2018-08-30T21:58:10.462Z,94.70
2018-08-30T22:00:52.167Z,94.80
2018-08-30T22:03:33.406Z,94.80
2018-08-30T22:06:14.641Z,94.80
2018-08-30T22:08:55.838Z,94.80
2018-08-30T22:11:37.364Z,94.80
2018-08-30T22:14:18.052Z,94.80
2018-08-30T22:16:58.695Z,94.90
2018-08-30T22:19:40.149Z,94.90
2018-08-30T22:22:21.061Z,95.00
2018-08-30T22:25:02.421Z,95.10
2018-08-30T22:27:43.962Z,95.00
2018-08-30T22:30:24.641Z,95.10
2018-08-30T22:33:05.307Z,95.30
2018-08-30T22:35:46.038Z,95.30
2018-08-30T22:38:27.477Z,95.20
2018-08-30T22:41:08.193Z,95.30
2018-08-30T22:43:49.625Z,95.20
2018-08-30T22:46:30.273Z,95.10
2018-08-30T22:49:11.785Z,95.00
2018-08-30T22:51:53.171Z,95.00
2018-08-30T22:54:33.837Z,95.10
2018-08-30T22:57:14.757Z,95.10
2018-08-30T22:59:56.014Z,95.20
2018-08-30T23:02:36.652Z,95.30
2018-08-30T23:05:18.045Z,95.30
2018-08-30T23:07:59.571Z,95.20
2018-08-30T23:10:40.098Z,95.10
2018-08-30T23:13:20.632Z,95.00
2018-08-30T23:16:01.352Z,95.10
2018-08-30T23:18:42.063Z,95.20
2018-08-30T23:21:23.426Z,95.20
2018-08-30T23:24:04.133Z,95.20
2018-08-30T23:26:44.681Z,95.20
2018-08-30T23:29:25.560Z,95.30
2018-08-30T23:32:06.864Z,95.40
2018-08-30T23:34:48.704Z,95.50
2018-08-30T23:37:29.909Z,95.60
2018-08-30T23:40:11.334Z,95.60
2018-08-30T23:42:52.231Z,95.60
2018-08-30T23:45:33.416Z,95.70
2018-08-30T23:48:14.035Z,95.90
2018-08-30T23:50:55.884Z,96.40
2018-08-30T23:53:37.032Z,96.60
2018-08-30T23:56:17.641Z,96.90
2018-08-30T23:58:58.513Z,97.10
